createdAt,value
2018-08-24T00:00:47.240Z,83.30
2018-08-24T00:03:15.491Z,83.60
2018-08-24T00:05:43.636Z,83.70
2018-08-24T00:08:12.047Z,84.30
2018-08-24T00:10:40.194Z,84.30
2018-08-24T00:13:08.792Z,85.70
2018-08-24T00:15:36.973Z,85.40
2018-08-24T00:18:05.099Z,84.80
2018-08-24T00:20:33.240Z,85.20
2018-08-24T00:23:01.383Z,86.20
2018-08-24T00:25:29.626Z,85.80
2018-08-24T00:27:57.781Z,87.80
2018-08-24T00:30:26.077Z,87.40
2018-08-24T00:32:54.219Z,87.60
2018-08-24T00:35:22.356Z,88.30
2018-08-24T00:37:50.511Z,89.20
2018-08-24T00:40:18.716Z,90.10
2018-08-24T00:42:46.903Z,90.30
2018-08-24T00:45:15.028Z,90.70
2018-08-24T00:47:43.174Z,90.70
2018-08-24T00:50:11.360Z,91.00
2018-08-24T00:52:39.488Z,90.70
2018-08-24T00:55:07.664Z,92.40
2018-08-24T00:57:35.833Z,92.90
2018-08-24T01:00:04.014Z,92.70
2018-08-24T01:02:32.163Z,92.10
2018-08-24T01:05:00.327Z,91.70
2018-08-24T01:07:28.525Z,90.90
2018-08-24T01:10:00.931Z,92.20
2018-08-24T01:12:29.071Z,92.60
2018-08-24T01:14:57.213Z,93.20
2018-08-24T01:17:31.178Z,94.00
2018-08-24T01:19:59.405Z,94.00
2018-08-24T01:22:27.511Z,94.60
2018-08-24T01:24:55.650Z,94.80
2018-08-24T01:27:23.747Z,95.60
2018-08-24T01:29:51.889Z,96.60
2018-08-24T01:32:20.008Z,95.90
2018-08-24T01:34:48.252Z,96.00
2018-08-24T01:37:16.353Z,97.00
2018-08-24T01:39:44.468Z,97.60
2018-08-24T01:42:12.631Z,97.10
2018-08-24T01:44:40.738Z,96.20
2018-08-24T01:47:08.976Z,96.20
2018-08-24T01:49:37.130Z,96.30
2018-08-24T01:52:05.307Z,96.20
2018-08-24T01:54:33.540Z,96.30
2018-08-24T01:57:01.699Z,97.60
2018-08-24T01:59:29.829Z,97.20
2018-08-24T02:01:57.988Z,96.90
2018-08-24T02:04:26.132Z,97.00
2018-08-24T02:06:54.279Z,97.40
2018-08-24T02:09:23.372Z,96.60
2018-08-24T02:11:51.601Z,96.80
2018-08-24T02:14:25.378Z,96.40
2018-08-24T02:16:53.544Z,96.80
2018-08-24T02:19:27.155Z,96.70
2018-08-24T02:22:00.847Z,96.90
2018-08-24T02:24:29.081Z,96.60
2018-08-24T02:26:57.251Z,97.40
2018-08-24T02:29:25.940Z,96.60
2018-08-24T02:31:54.139Z,96.80
2018-08-24T02:34:22.470Z,97.10
2018-08-24T02:36:50.654Z,97.00
2018-08-24T02:39:19.558Z,96.60
2018-08-24T02:41:47.709Z,96.70
2018-08-24T02:44:15.964Z,96.60
2018-08-24T02:46:44.720Z,96.90
2018-08-24T02:49:13.082Z,97.00
2018-08-24T02:51:41.222Z,97.90
2018-08-24T02:54:09.898Z,97.40
2018-08-24T02:56:38.065Z,97.10
2018-08-24T02:59:06.283Z,97.70
2018-08-24T03:01:35.294Z,97.40
2018-08-24T03:04:03.443Z,97.00
2018-08-24T03:06:31.596Z,96.80
2018-08-24T03:08:59.746Z,96.50
2018-08-24T03:11:28.198Z,96.50
2018-08-24T03:13:56.359Z,96.60
2018-08-24T03:16:24.614Z,97.00
2018-08-24T03:18:52.677Z,97.50
2018-08-24T03:21:20.875Z,97.40
2018-08-24T03:23:49.030Z,98.00
2018-08-24T03:26:17.147Z,97.60
2018-08-24T03:28:45.303Z,97.50
2018-08-24T03:31:13.445Z,97.50
2018-08-24T03:33:41.700Z,97.80
2018-08-24T03:36:09.898Z,98.00
2018-08-24T03:38:38.058Z,97.80
2018-08-24T03:41:06.356Z,97.90
2018-08-24T03:43:34.520Z,98.30
2018-08-24T03:46:02.714Z,98.00
2018-08-24T03:48:30.857Z,97.90
2018-08-24T03:50:58.971Z,97.60
2018-08-24T03:53:27.111Z,97.50
2018-08-24T03:55:55.222Z,97.50
2018-08-24T03:58:23.348Z,97.50
2018-08-24T04:00:55.708Z,97.60
2018-08-24T04:03:23.857Z,97.70
2018-08-24T04:05:52.320Z,97.40
2018-08-24T04:08:20.447Z,97.40
2018-08-24T04:10:48.564Z,97.80
2018-08-24T04:13:16.751Z,98.10
2018-08-24T04:15:44.896Z,98.00
2018-08-24T04:18:13.033Z,97.80
2018-08-24T04:20:41.702Z,98.70
2018-08-24T04:23:09.820Z,98.30
2018-08-24T04:25:38.078Z,99.10
2018-08-24T04:28:06.082Z,98.90
2018-08-24T04:30:34.276Z,98.50
2018-08-24T04:33:02.430Z,98.80
2018-08-24T04:35:30.750Z,98.30
2018-08-24T04:37:58.897Z,98.10
2018-08-24T04:40:27.169Z,97.70
2018-08-24T04:42:55.163Z,97.70
2018-08-24T04:45:23.375Z,97.80
2018-08-24T04:47:51.471Z,97.50
2018-08-24T04:50:19.681Z,97.90
2018-08-24T04:52:47.844Z,97.00
2018-08-24T04:55:15.982Z,97.20
2018-08-24T04:57:44.153Z,98.00
2018-08-24T05:00:12.316Z,98.30
2018-08-24T05:02:40.512Z,98.00
2018-08-24T05:05:09.075Z,97.90
2018-08-24T05:07:37.223Z,97.30
2018-08-24T05:10:05.464Z,98.30
2018-08-24T05:12:33.643Z,98.10
2018-08-24T05:15:01.844Z,97.40
2018-08-24T05:17:29.991Z,97.90
2018-08-24T05:19:58.168Z,97.70
2018-08-24T05:22:26.342Z,97.30
2018-08-24T05:24:54.537Z,97.60
2018-08-24T05:27:22.620Z,97.30
2018-08-24T05:29:50.870Z,97.30
2018-08-24T05:32:19.007Z,97.10
2018-08-24T05:34:47.363Z,97.10
2018-08-24T05:37:15.547Z,97.70
2018-08-24T05:39:43.704Z,97.50
2018-08-24T05:42:11.817Z,97.10
2018-08-24T05:44:39.948Z,97.10
2018-08-24T05:47:08.139Z,97.60
2018-08-24T05:49:36.308Z,97.40
2018-08-24T05:52:04.457Z,97.90
2018-08-24T05:54:32.613Z,97.80
2018-08-24T05:57:00.745Z,98.10
2018-08-24T05:59:28.928Z,98.00
2018-08-24T06:01:57.188Z,98.10
2018-08-24T06:04:26.232Z,97.20
2018-08-24T06:06:55.448Z,97.20
2018-08-24T06:09:23.576Z,97.00
2018-08-24T06:11:51.715Z,97.30
2018-08-24T06:14:19.911Z,97.00
2018-08-24T06:16:53.618Z,96.90
2018-08-24T06:19:22.073Z,96.30
2018-08-24T06:21:51.664Z,96.80
2018-08-24T06:24:20.190Z,96.80
2018-08-24T06:26:48.528Z,97.20
2018-08-24T06:29:16.698Z,96.90
2018-08-24T06:31:44.979Z,97.40
2018-08-24T06:34:13.241Z,97.30
2018-08-24T06:36:41.440Z,96.80
2018-08-24T06:39:11.674Z,96.50
2018-08-24T06:41:39.832Z,96.90
2018-08-24T06:44:08.144Z,96.90
2018-08-24T06:46:36.804Z,97.00
2018-08-24T06:49:04.984Z,97.00
2018-08-24T06:51:33.170Z,96.20
2018-08-24T06:54:02.228Z,95.60
2018-08-24T06:56:30.276Z,95.40
2018-08-24T06:58:58.409Z,95.60
2018-08-24T07:01:26.528Z,95.10
2018-08-24T07:03:54.624Z,95.70
2018-08-24T07:06:22.735Z,94.80
2018-08-24T07:08:50.876Z,95.10
2018-08-24T07:11:18.987Z,95.40
2018-08-24T07:13:49.067Z,94.80
2018-08-24T07:16:17.191Z,95.30
2018-08-24T07:18:45.327Z,95.20
2018-08-24T07:21:13.449Z,94.70
2018-08-24T07:23:41.617Z,95.30
2018-08-24T07:26:09.815Z,95.50
2018-08-24T07:28:37.997Z,95.30
2018-08-24T07:31:06.304Z,94.90
2018-08-24T07:33:34.460Z,94.80
2018-08-24T07:36:02.559Z,94.10
2018-08-24T07:38:30.668Z,94.30
2018-08-24T07:40:58.787Z,94.30
2018-08-24T07:43:26.883Z,94.00
2018-08-24T07:45:54.993Z,94.40
2018-08-24T07:48:23.112Z,94.70
2018-08-24T07:50:52.070Z,94.60
2018-08-24T07:53:20.072Z,94.80
2018-08-24T07:55:48.195Z,94.60
2018-08-24T07:58:16.360Z,94.50
2018-08-24T08:00:44.515Z,95.10
2018-08-24T08:03:12.639Z,95.60
2018-08-24T08:05:40.767Z,95.80
2018-08-24T08:08:08.908Z,97.10
2018-08-24T08:10:39.444Z,97.60
2018-08-24T08:13:08.630Z,97.00
2018-08-24T08:15:36.770Z,97.30
2018-08-24T08:18:04.933Z,96.50
2018-08-24T08:20:33.064Z,96.20
2018-08-24T08:23:01.159Z,96.50
2018-08-24T08:25:29.264Z,95.00
2018-08-24T08:27:57.451Z,94.60
2018-08-24T08:30:26.494Z,94.60
2018-08-24T08:32:54.616Z,94.80
2018-08-24T08:35:22.737Z,93.70
2018-08-24T08:37:50.868Z,93.20
2018-08-24T08:40:18.993Z,93.40
2018-08-24T08:42:47.096Z,93.40
2018-08-24T08:45:15.280Z,93.30
2018-08-24T08:47:43.373Z,92.80
2018-08-24T08:50:11.509Z,93.30
2018-08-24T08:52:39.644Z,92.40
2018-08-24T08:55:07.771Z,92.80
2018-08-24T08:57:35.890Z,92.50
2018-08-24T09:00:04.113Z,92.90
2018-08-24T09:02:32.231Z,93.00
2018-08-24T09:05:00.373Z,92.40
2018-08-24T09:07:28.504Z,92.90
2018-08-24T09:09:56.647Z,92.40
2018-08-24T09:12:24.809Z,93.60
2018-08-24T09:14:52.939Z,93.50
2018-08-24T09:17:26.380Z,92.90
2018-08-24T09:19:59.937Z,93.60
2018-08-24T09:22:33.379Z,93.90
2018-08-24T09:25:06.829Z,94.30
2018-08-24T09:27:37.417Z,93.60
2018-08-24T09:30:06.064Z,93.50
2018-08-24T09:32:34.388Z,93.10
2018-08-24T09:35:02.375Z,92.90
2018-08-24T09:37:38.199Z,93.90
2018-08-24T09:40:07.111Z,93.10
2018-08-24T09:42:35.261Z,91.80
2018-08-24T09:45:03.593Z,91.80
2018-08-24T09:47:36.996Z,91.90
2018-08-24T09:50:10.893Z,91.80
2018-08-24T09:52:39.029Z,90.30
2018-08-24T09:55:07.308Z,90.30
2018-08-24T09:57:35.479Z,91.10
2018-08-24T10:00:03.635Z,91.00
2018-08-24T10:02:37.431Z,90.50
2018-08-24T10:05:11.092Z,87.70
2018-08-24T10:07:44.851Z,88.90
2018-08-24T10:10:12.937Z,85.20
2018-08-24T10:12:41.077Z,84.40
2018-08-24T10:15:09.701Z,80.30
2018-08-24T10:17:37.861Z,74.30
2018-08-24T10:20:06.525Z,72.50
2018-08-24T10:22:34.675Z,58.90
2018-08-24T10:25:03.063Z,57.40
2018-08-24T10:27:31.280Z,57.90
2018-08-24T10:29:59.420Z,59.90
2018-08-24T10:32:27.587Z,59.10
2018-08-24T10:34:55.764Z,61.40
2018-08-24T10:37:23.895Z,57.10
2018-08-24T10:39:52.034Z,59.40
2018-08-24T10:42:21.255Z,59.20
2018-08-24T10:44:49.393Z,57.40
2018-08-24T10:47:17.609Z,56.80
2018-08-24T10:49:45.684Z,55.60
2018-08-24T10:52:13.792Z,51.30
2018-08-24T10:54:41.976Z,50.70
2018-08-24T10:57:10.049Z,51.00
2018-08-24T10:59:38.294Z,52.60
2018-08-24T11:02:06.583Z,51.10
2018-08-24T11:04:34.641Z,52.90
2018-08-24T11:07:03.278Z,54.50
2018-08-24T11:09:31.377Z,54.20
2018-08-24T11:12:00.193Z,53.20
2018-08-24T11:14:28.315Z,51.70
2018-08-24T11:16:56.525Z,51.70
2018-08-24T11:19:24.625Z,50.00
2018-08-24T11:21:53.103Z,50.60
2018-08-24T11:24:21.221Z,49.50
2018-08-24T11:26:49.461Z,45.40
2018-08-24T11:36:41.210Z,33.50
2018-08-24T11:39:09.712Z,31.50
2018-08-24T11:41:37.970Z,32.10
2018-08-24T11:44:06.208Z,35.00
2018-08-24T11:46:34.536Z,33.50
2018-08-24T11:49:02.710Z,32.90
2018-08-24T12:03:51.005Z,29.80
2018-08-24T12:08:47.267Z,29.00
2018-08-24T12:11:15.403Z,30.00
2018-08-24T12:16:11.435Z,28.80
2018-08-24T12:21:07.527Z,27.90
2018-08-24T12:35:55.372Z,26.10
2018-08-24T12:38:23.520Z,27.70
2018-08-24T12:40:51.693Z,28.30
2018-08-24T12:43:19.859Z,28.10
2018-08-24T12:45:47.995Z,29.60
2018-08-24T12:48:16.145Z,30.50
2018-08-24T12:50:44.344Z,31.50
2018-08-24T12:53:12.476Z,33.00
2018-08-24T12:55:40.616Z,32.30
2018-08-24T12:58:08.836Z,32.70
2018-08-24T13:00:37.020Z,33.70
2018-08-24T13:03:05.331Z,33.70
2018-08-24T13:05:33.592Z,32.80
2018-08-24T13:08:01.727Z,31.90
2018-08-24T13:10:29.887Z,31.20
2018-08-24T13:12:58.012Z,31.60
2018-08-24T13:15:27.048Z,32.30
2018-08-24T13:17:55.171Z,33.40
2018-08-24T13:20:23.308Z,34.30
2018-08-24T13:22:51.479Z,34.00
2018-08-24T13:25:19.612Z,34.10
2018-08-24T13:27:48.479Z,35.50
2018-08-24T13:30:16.664Z,36.30
2018-08-24T13:32:44.860Z,35.30
2018-08-24T13:35:13.024Z,36.20
2018-08-24T13:37:41.169Z,37.10
2018-08-24T13:40:09.328Z,35.60
2018-08-24T13:42:37.484Z,35.90
2018-08-24T13:45:05.687Z,37.50
2018-08-24T13:47:34.917Z,36.90
2018-08-24T13:50:03.020Z,35.80
2018-08-24T13:52:31.290Z,34.80
2018-08-24T13:54:59.472Z,35.40
2018-08-24T13:57:27.653Z,35.30
2018-08-24T13:59:55.952Z,36.00
2018-08-24T14:02:24.004Z,35.40
2018-08-24T14:04:52.159Z,35.10
2018-08-24T14:07:20.367Z,34.90
2018-08-24T14:09:48.541Z,33.10
2018-08-24T14:12:16.709Z,33.30
2018-08-24T14:14:44.821Z,31.90
2018-08-24T14:17:12.943Z,32.60
2018-08-24T14:19:41.088Z,31.80
2018-08-24T14:22:09.385Z,32.00
2018-08-24T14:24:37.536Z,33.60
2018-08-24T14:27:05.721Z,34.30
2018-08-24T14:29:33.859Z,33.50
2018-08-24T14:32:02.914Z,33.20
2018-08-24T14:34:31.064Z,31.90
2018-08-24T14:36:59.228Z,32.60
2018-08-24T14:39:27.352Z,32.50
2018-08-24T14:41:55.519Z,33.40
2018-08-24T14:44:23.647Z,36.40
2018-08-24T14:46:51.804Z,36.30
2018-08-24T14:49:19.936Z,37.10
2018-08-24T14:51:48.080Z,37.20
2018-08-24T14:54:16.297Z,37.10
2018-08-24T14:56:44.488Z,38.10
2018-08-24T14:59:12.646Z,37.80
2018-08-24T15:01:40.811Z,37.10
2018-08-24T15:04:09.060Z,36.80
2018-08-24T15:06:37.203Z,36.30
2018-08-24T15:09:07.983Z,35.70
2018-08-24T15:11:36.132Z,35.90
2018-08-24T15:14:04.308Z,36.50
2018-08-24T15:16:32.508Z,36.10
2018-08-24T15:19:00.625Z,36.40
2018-08-24T15:21:28.790Z,36.50
2018-08-24T15:23:56.928Z,35.90
2018-08-24T15:26:25.055Z,35.00
2018-08-24T15:28:53.200Z,35.20
2018-08-24T15:31:21.473Z,35.70
2018-08-24T15:33:49.625Z,34.60
2018-08-24T15:36:17.797Z,35.50
2018-08-24T15:38:46.018Z,35.10
2018-08-24T15:41:14.209Z,35.70
2018-08-24T15:43:42.351Z,37.30
2018-08-24T15:46:10.567Z,37.60
2018-08-24T15:48:38.671Z,37.60
2018-08-24T15:51:06.960Z,37.10
2018-08-24T15:53:35.023Z,37.40
2018-08-24T15:56:03.165Z,38.40
2018-08-24T15:58:31.301Z,38.90
2018-08-24T16:00:59.440Z,40.40
2018-08-24T16:03:27.613Z,40.20
2018-08-24T16:05:55.723Z,41.30
2018-08-24T16:08:23.892Z,40.70
2018-08-24T16:10:52.102Z,40.20
2018-08-24T16:13:20.211Z,38.80
2018-08-24T16:15:48.309Z,38.90
2018-08-24T16:18:23.174Z,39.70
2018-08-24T16:20:51.970Z,39.80
2018-08-24T16:23:20.090Z,39.90
2018-08-24T16:25:54.540Z,37.30
2018-08-24T16:28:22.641Z,38.20
2018-08-24T16:30:50.776Z,37.40
2018-08-24T16:33:19.237Z,37.30
2018-08-24T16:35:47.363Z,36.80
2018-08-24T16:38:16.149Z,38.00
2018-08-24T16:40:44.304Z,37.20
2018-08-24T16:43:12.811Z,36.60
2018-08-24T16:45:40.932Z,37.20
2018-08-24T16:48:09.202Z,37.40
2018-08-24T16:50:37.347Z,37.80
2018-08-24T16:53:05.524Z,37.40
2018-08-24T16:55:33.689Z,37.60
2018-08-24T16:58:01.851Z,38.00
2018-08-24T17:00:29.949Z,38.30
2018-08-24T17:02:58.085Z,39.90
2018-08-24T17:05:26.195Z,39.80
2018-08-24T17:07:54.339Z,39.40
2018-08-24T17:10:22.477Z,39.00
2018-08-24T17:12:50.651Z,38.10
2018-08-24T17:15:18.748Z,39.10
2018-08-24T17:17:46.893Z,38.00
2018-08-24T17:20:15.036Z,37.80
2018-08-24T17:22:43.207Z,37.80
2018-08-24T17:25:11.387Z,37.90
2018-08-24T17:27:39.497Z,38.20
2018-08-24T17:30:07.647Z,37.30
2018-08-24T17:32:35.784Z,37.70
2018-08-24T17:35:03.892Z,37.40
2018-08-24T17:37:32.244Z,38.60
2018-08-24T17:40:00.403Z,37.80
2018-08-24T17:42:28.522Z,38.70
2018-08-24T17:44:56.655Z,37.90
2018-08-24T17:47:24.816Z,39.10
2018-08-24T17:49:52.943Z,38.50
2018-08-24T17:52:21.133Z,39.80
2018-08-24T17:54:49.274Z,39.90
2018-08-24T17:57:17.441Z,40.00
2018-08-24T17:59:45.583Z,39.60
2018-08-24T18:02:13.725Z,40.30
2018-08-24T18:04:41.864Z,39.90
2018-08-24T18:07:10.229Z,40.60
2018-08-24T18:09:38.422Z,40.90
2018-08-24T18:12:06.550Z,39.60
2018-08-24T18:14:34.810Z,40.10
2018-08-24T18:17:03.296Z,40.10
2018-08-24T18:19:31.421Z,40.70
2018-08-24T18:21:59.571Z,40.30
2018-08-24T18:24:27.846Z,40.60
2018-08-24T18:26:55.928Z,41.70
2018-08-24T18:29:24.066Z,41.70
2018-08-24T18:31:52.236Z,42.60
2018-08-24T18:34:20.540Z,42.30
2018-08-24T18:36:48.709Z,41.90
2018-08-24T18:39:16.868Z,42.50
2018-08-24T18:41:45.024Z,42.30
2018-08-24T18:44:13.208Z,42.40
2018-08-24T18:50:13.242Z,43.20
2018-08-24T18:52:41.400Z,44.00
2018-08-24T18:55:09.528Z,43.80
2018-08-24T18:57:37.730Z,44.00
2018-08-24T19:00:05.932Z,44.20
2018-08-24T19:02:34.085Z,43.60
2018-08-24T19:05:02.305Z,44.40
2018-08-24T19:07:30.386Z,44.20
2018-08-24T19:09:58.507Z,43.90
2018-08-24T19:12:28.024Z,44.10
2018-08-24T19:14:57.098Z,44.20
2018-08-24T19:17:30.847Z,43.80
2018-08-24T19:20:04.524Z,44.00
2018-08-24T19:22:32.686Z,44.30
2018-08-24T19:25:00.932Z,44.60
2018-08-24T19:27:34.590Z,44.20
2018-08-24T19:30:08.331Z,44.50
2018-08-24T19:32:36.703Z,44.20
2018-08-24T19:35:05.117Z,44.40
2018-08-24T19:37:33.313Z,44.30
2018-08-24T19:40:06.851Z,43.60
2018-08-24T19:42:35.193Z,44.20
2018-08-24T19:45:03.322Z,44.20
2018-08-24T19:47:36.760Z,45.00
2018-08-24T19:50:05.167Z,45.00
2018-08-24T19:52:33.287Z,44.50
2018-08-24T19:55:01.713Z,44.70
2018-08-24T19:57:35.119Z,45.00
2018-08-24T20:00:03.257Z,44.60
2018-08-24T20:02:31.403Z,44.70
2018-08-24T20:04:59.521Z,44.80
2018-08-24T20:07:33.292Z,44.20
2018-08-24T20:10:05.197Z,45.20
2018-08-24T20:12:33.371Z,44.50
2018-08-24T20:15:06.741Z,44.20
2018-08-24T20:17:34.924Z,45.00
2018-08-24T20:20:03.070Z,45.60
2018-08-24T20:22:31.203Z,45.10
2018-08-24T20:24:59.339Z,45.20
2018-08-24T20:27:28.058Z,44.90
2018-08-24T20:29:56.175Z,44.90
2018-08-24T20:32:24.291Z,45.20
2018-08-24T20:34:52.445Z,45.60
2018-08-24T20:37:20.572Z,45.60
2018-08-24T20:39:48.726Z,46.20
2018-08-24T20:42:16.908Z,45.80
2018-08-24T20:44:45.028Z,45.50
2018-08-24T20:47:13.161Z,46.20
2018-08-24T20:49:41.294Z,46.40
2018-08-24T20:52:09.471Z,46.90
2018-08-24T20:54:37.611Z,47.10
2018-08-24T20:57:06.018Z,47.40
2018-08-24T20:59:34.172Z,47.20
2018-08-24T21:02:02.471Z,47.90
2018-08-24T21:04:30.608Z,47.40
2018-08-24T21:06:58.750Z,47.60
2018-08-24T21:09:26.905Z,48.10
2018-08-24T21:11:55.100Z,48.30
2018-08-24T21:14:23.240Z,48.50
2018-08-24T21:16:51.518Z,48.50
2018-08-24T21:19:19.662Z,48.60
2018-08-24T21:21:47.981Z,48.90
2018-08-24T21:24:16.220Z,49.20
2018-08-24T21:26:44.352Z,49.40
2018-08-24T21:29:13.119Z,49.50
2018-08-24T21:31:41.197Z,49.60
2018-08-24T21:34:09.413Z,49.80
2018-08-24T21:36:37.572Z,50.50
2018-08-24T21:39:08.407Z,50.40
2018-08-24T21:41:36.597Z,50.30
2018-08-24T21:44:04.737Z,50.90
2018-08-24T21:46:32.861Z,50.60
2018-08-24T21:49:01.003Z,50.60
2018-08-24T21:51:29.247Z,50.50
2018-08-24T21:53:57.402Z,50.50
2018-08-24T21:56:25.669Z,51.60
2018-08-24T21:58:53.815Z,51.00
2018-08-24T22:01:21.983Z,51.30
2018-08-24T22:03:50.214Z,51.80
2018-08-24T22:06:18.340Z,51.90
2018-08-24T22:08:46.514Z,51.80
2018-08-24T22:11:14.791Z,52.20
2018-08-24T22:13:42.923Z,52.70
2018-08-24T22:16:11.056Z,52.80
2018-08-24T22:18:39.203Z,52.70
2018-08-24T22:21:07.401Z,53.30
2018-08-24T22:23:35.551Z,53.70
2018-08-24T22:26:03.697Z,53.60
2018-08-24T22:28:31.815Z,54.40
2018-08-24T22:30:59.993Z,54.90
2018-08-24T22:33:28.293Z,55.30
2018-08-24T22:35:56.443Z,55.60
2018-08-24T22:38:24.752Z,56.10
2018-08-24T22:40:52.921Z,56.50
2018-08-24T22:43:26.591Z,56.80
2018-08-24T22:45:54.718Z,57.10
2018-08-24T22:48:22.870Z,57.60
2018-08-24T22:50:51.043Z,57.70
2018-08-24T22:53:19.194Z,57.30
2018-08-24T22:55:47.336Z,57.30
2018-08-24T22:58:16.450Z,57.10
2018-08-24T23:00:44.732Z,57.00
2018-08-24T23:03:12.936Z,56.90
2018-08-24T23:05:41.064Z,56.40
2018-08-24T23:08:09.316Z,56.20
2018-08-24T23:10:37.480Z,56.20
2018-08-24T23:13:05.964Z,56.10
2018-08-24T23:15:34.265Z,56.30
2018-08-24T23:18:02.411Z,56.20
2018-08-24T23:20:30.538Z,55.70
2018-08-24T23:22:58.696Z,56.10
2018-08-24T23:25:26.824Z,55.80
2018-08-24T23:27:54.958Z,55.50
2018-08-24T23:30:23.138Z,55.60
2018-08-24T23:32:51.273Z,55.90
2018-08-24T23:35:19.413Z,55.10
2018-08-24T23:37:47.579Z,54.70
2018-08-24T23:40:18.782Z,54.70
2018-08-24T23:42:46.952Z,54.30
2018-08-24T23:45:15.092Z,54.80
2018-08-24T23:47:43.245Z,54.80
2018-08-24T23:50:11.352Z,54.90
2018-08-24T23:52:39.533Z,54.60
2018-08-24T23:55:07.642Z,54.90
2018-08-24T23:57:35.804Z,55.30
